Terminal Aerodrome Forecast
Issued by NWS Houston/Galveston, TX

Home | Current Version | Previous Version | Text Only | Print | Product List | Glossary On
Versions: 1 2 3 4 5 6 7 8 9 10 11 12 13 14 15 16 17 18 19 20 21 22 23 24 25 26 27 28 29 30 31 32 33 34 35 36 37 38
000
FTUS44 KHGX 201730
TAFCLL
TAF
KCLL 201730Z 2018/2118 17009KT P6SM SCT040
     FM202000 15014KT P6SM VCTS SCT050CB
     FM210100 16011KT P6SM FEW030 SCT250
     FM210500 17007KT P6SM SKC
     FM211200 17006KT P6SM SCT015
     FM211500 18012KT P6SM SCT030=

USA.gov is the U.S. government's official web portal to all federal, state and local government web resources and services.